Healdsburg, CA (95448)

6:02 PM PDT on July 24, 2016 (GMT -0700)
Healdsburg HS | | Change Station

Elev 148 ft 38.62 °N, 122.87 °W | Updated 9 minutes ago

Clear
Clear
94.8 °F
Feels Like 93 °F
N
1.2
Wind Variable Wind from WNW

Today
High -- | Low -- °F
--% Chance of Precip.
Yesterday
High -- | Low -- °F
Precip. -- in
Pressure 29.80 in
Visibility 9.0 miles
Clouds Clear
Heat Index 93 °F
Dew Point 61 °F
Humidity 26%
Rainfall Not available.
Snow Depth Not available.
6:06 AM 8:28 PM
Waning Gibbous, 71% visible
METAR KSTS 250053Z 16011KT 9SM CLR 28/12 A2982 RMK AO2 SLP090 T02780122
Pressure 29.80 in
Visibility 9.0 miles
Clouds Clear
Heat Index 93 °F
Dew Point 61 °F
Humidity 26%
Rainfall Not available.
Snow Depth Not available.
6:06 AM 8:28 PM
Waning Gibbous, 71% visible
METAR KSTS 250053Z 16011KT 9SM CLR 28/12 A2982 RMK AO2 SLP090 T02780122

10-Day Weather Forecast

Almanac

Astronomy

Jul. 24, 2016 Rise Set
Actual Time
Civil Twilight
Nautical Twilight
Astronomical Twilight
Moon
Length of Visible Light
Length of Day
Tomorrow will be .
, % of the Moon is Illuminated

Today's Extremes

State Highs State Lows

Community

WunderPhotos

Upload Photos

1,927,224 photos uploaded!

WunderBlog® & News

Nearby

Air Quality

  Air Quality AQ Index Pollutant
Not available.

Snow Depth

Station Depth Elevation

Earthquake Activity

City Distance Mag. Time & Date
Minimum magnitude displayed is 2.5.

Coastal Water Temperatures

Place Temperature

Stations

Nearby Weather Stations

Station Location Temp. Windchill Dew Point Humidity Wind Precip. Elev Updated Type
                   

Watches & Warnings

There are currently no watches in effect.